createdAt,value
2019-03-10T00:00:04.087Z,67.431641
2019-03-10T00:01:13.601Z,67.327881
2019-03-10T00:02:23.153Z,67.126465
2019-03-10T00:03:32.609Z,67.022705
2019-03-10T00:04:42.126Z,67.126465
2019-03-10T00:05:51.637Z,67.230225
2019-03-10T00:07:01.193Z,67.126465
2019-03-10T00:08:10.693Z,67.022705
2019-03-10T00:09:20.197Z,67.126465
2019-03-10T00:10:29.709Z,66.717529
2019-03-10T00:11:39.228Z,66.717529
2019-03-10T00:12:48.735Z,66.815186
2019-03-10T00:13:58.243Z,67.126465
2019-03-10T00:15:07.754Z,67.022705
2019-03-10T00:16:17.286Z,67.022705
2019-03-10T00:17:26.786Z,66.918945
2019-03-10T00:18:36.291Z,66.815186
2019-03-10T00:19:45.797Z,67.022705
2019-03-10T00:20:55.304Z,67.022705
2019-03-10T00:22:04.823Z,67.022705
2019-03-10T00:23:14.332Z,67.156982
2019-03-10T00:24:23.826Z,67.260742
2019-03-10T00:25:33.331Z,67.053223
2019-03-10T00:26:42.855Z,67.156982
2019-03-10T00:27:52.362Z,66.540527
2019-03-10T00:29:01.870Z,66.51001
2019-03-10T00:30:11.381Z,66.61377
2019-03-10T00:31:20.910Z,66.40625
2019-03-10T00:32:30.423Z,66.540527
2019-03-10T00:33:39.938Z,66.436768
2019-03-10T00:34:49.442Z,66.540527
2019-03-10T00:35:58.944Z,66.644287
2019-03-10T00:37:08.702Z,66.748047
2019-03-10T00:38:18.089Z,66.644287
2019-03-10T00:39:27.604Z,66.644287
2019-03-10T00:40:37.109Z,66.644287
2019-03-10T00:41:46.629Z,66.644287
2019-03-10T00:42:56.136Z,66.851807
2019-03-10T00:44:05.635Z,67.053223
2019-03-10T00:45:16.128Z,67.053223
2019-03-10T00:46:25.651Z,67.260742
2019-03-10T00:47:35.152Z,67.358398
2019-03-10T00:48:44.666Z,67.358398
2019-03-10T00:49:54.170Z,67.358398
2019-03-10T00:51:03.681Z,67.260742
2019-03-10T00:52:13.192Z,67.358398
2019-03-10T00:53:22.702Z,67.260742
2019-03-10T00:54:33.198Z,67.260742
2019-03-10T00:55:42.704Z,67.358398
2019-03-10T00:56:52.233Z,67.358398
2019-03-10T00:58:01.746Z,67.260742
2019-03-10T00:59:11.245Z,67.462158
2019-03-10T01:00:20.756Z,67.358398
2019-03-10T01:01:30.263Z,67.39502
2019-03-10T01:02:39.794Z,67.39502
2019-03-10T01:03:49.296Z,67.462158
2019-03-10T01:04:58.806Z,67.492676
2019-03-10T01:06:08.315Z,67.596436
2019-03-10T01:07:17.839Z,67.39502
2019-03-10T01:08:27.347Z,67.596436
2019-03-10T01:09:36.857Z,67.596436
2019-03-10T01:10:46.373Z,67.492676
2019-03-10T01:11:55.890Z,67.596436
2019-03-10T01:13:05.392Z,67.492676
2019-03-10T01:14:14.888Z,67.492676
2019-03-10T01:15:24.398Z,67.596436
2019-03-10T01:16:33.911Z,67.596436
2019-03-10T01:17:43.442Z,67.700195
2019-03-10T01:18:52.950Z,67.596436
2019-03-10T01:20:02.458Z,67.492676
2019-03-10T01:21:11.962Z,67.39502
2019-03-10T01:22:21.483Z,67.39502
2019-03-10T01:23:30.987Z,67.492676
2019-03-10T01:24:40.499Z,67.596436
2019-03-10T01:25:50.003Z,67.596436
2019-03-10T01:26:59.559Z,67.803955
2019-03-10T01:28:09.097Z,67.901611
2019-03-10T01:29:18.601Z,68.005371
2019-03-10T01:30:28.113Z,68.005371
2019-03-10T01:31:37.613Z,67.901611
2019-03-10T01:32:47.133Z,67.901611
2019-03-10T01:33:56.644Z,68.005371
2019-03-10T01:35:06.147Z,68.139648
2019-03-10T01:36:15.646Z,68.243408
2019-03-10T01:37:25.175Z,68.139648
2019-03-10T01:38:34.674Z,68.109131
2019-03-10T01:39:44.187Z,68.109131
2019-03-10T01:40:53.693Z,68.109131
2019-03-10T01:42:03.209Z,68.243408
2019-03-10T01:43:12.718Z,68.212891
2019-03-10T01:44:22.221Z,68.212891
2019-03-10T01:45:31.723Z,68.212891
2019-03-10T01:46:41.230Z,68.212891
2019-03-10T01:47:50.738Z,68.212891
2019-03-10T01:49:00.242Z,68.31665
2019-03-10T01:50:09.746Z,68.414307
2019-03-10T01:51:19.254Z,68.652344
2019-03-10T01:52:28.771Z,68.859863
2019-03-10T01:53:38.269Z,68.859863
2019-03-10T01:54:47.775Z,68.859863
2019-03-10T01:55:57.281Z,68.725586
2019-03-10T01:57:06.800Z,68.725586
2019-03-10T01:58:16.305Z,68.725586
2019-03-10T01:59:25.807Z,68.859863
2019-03-10T02:00:35.312Z,68.859863
2019-03-10T02:01:44.825Z,69.061279
2019-03-10T02:02:54.347Z,69.165039
2019-03-10T02:04:03.860Z,69.268799
2019-03-10T02:05:13.361Z,69.372559
2019-03-10T02:06:22.860Z,69.268799
2019-03-10T02:07:32.488Z,69.165039
2019-03-10T02:08:41.993Z,69.165039
2019-03-10T02:09:51.530Z,69.165039
2019-03-10T02:11:01.031Z,69.268799
2019-03-10T02:12:10.564Z,69.470215
2019-03-10T02:13:20.072Z,69.372559
2019-03-10T02:14:29.576Z,69.573975
2019-03-10T02:15:39.099Z,69.677734
2019-03-10T02:16:48.601Z,69.885254
2019-03-10T02:17:58.137Z,69.885254
2019-03-10T02:19:07.650Z,70.08667
2019-03-10T02:20:17.153Z,70.08667
2019-03-10T02:21:26.675Z,69.98291
2019-03-10T02:22:36.200Z,69.98291
2019-03-10T02:23:45.724Z,69.98291
2019-03-10T02:24:55.230Z,69.98291
2019-03-10T02:26:04.732Z,70.08667
2019-03-10T02:27:14.257Z,70.08667
2019-03-10T02:28:23.778Z,70.19043
2019-03-10T02:29:33.282Z,70.19043
2019-03-10T02:30:42.773Z,70.294189
2019-03-10T02:31:52.287Z,70.428467
2019-03-10T02:33:01.862Z,70.635986
2019-03-10T02:34:11.315Z,70.532227
2019-03-10T02:35:20.829Z,70.532227
2019-03-10T02:36:30.328Z,70.294189
2019-03-10T02:37:39.849Z,70.397949
2019-03-10T02:38:49.349Z,70.397949
2019-03-10T02:39:58.857Z,70.428467
2019-03-10T02:41:08.395Z,70.532227
2019-03-10T02:42:17.992Z,70.635986
2019-03-10T02:43:27.562Z,70.495605
2019-03-10T02:44:37.058Z,70.397949
2019-03-10T02:45:46.564Z,70.397949
2019-03-10T02:46:56.076Z,70.397949
2019-03-10T02:48:05.602Z,70.495605
2019-03-10T02:49:15.115Z,70.733643
2019-03-10T02:50:24.617Z,70.837402
2019-03-10T02:51:34.124Z,70.806885
2019-03-10T02:52:43.648Z,70.703125
2019-03-10T02:53:53.172Z,70.703125
2019-03-10T02:55:02.678Z,70.703125
2019-03-10T02:56:12.178Z,70.806885
2019-03-10T02:57:21.682Z,70.910645
2019-03-10T02:58:31.243Z,71.008301
2019-03-10T02:59:41.754Z,70.910645
2019-03-10T03:00:51.313Z,71.008301
2019-03-10T03:02:00.816Z,70.910645
2019-03-10T03:03:10.344Z,71.008301
2019-03-10T03:04:19.850Z,71.148682
2019-03-10T03:05:29.357Z,71.246338
2019-03-10T03:06:38.863Z,71.350098
2019-03-10T03:07:49.386Z,71.453857
2019-03-10T03:08:58.913Z,71.453857
2019-03-10T03:10:08.420Z,71.557617
2019-03-10T03:11:17.929Z,71.557617
2019-03-10T03:12:27.426Z,71.350098
2019-03-10T03:13:36.940Z,70.941162
2019-03-10T03:14:46.446Z,70.941162
2019-03-10T03:15:56.027Z,70.733643
2019-03-10T03:17:05.533Z,70.397949
2019-03-10T03:18:15.112Z,70.294189
2019-03-10T03:19:24.641Z,70.294189
2019-03-10T03:20:34.168Z,70.220947
2019-03-10T03:21:44.019Z,69.708252
2019-03-10T03:22:53.198Z,69.061279
2019-03-10T03:24:02.724Z,69.061279
2019-03-10T03:25:12.248Z,68.450928
2019-03-10T03:26:21.748Z,67.626953
2019-03-10T03:27:31.254Z,65.270996
2019-03-10T03:28:40.768Z,65.167236
2019-03-10T03:29:50.289Z,63.73291
2019-03-10T03:30:59.832Z,61.14502
2019-03-10T03:32:09.387Z,60.632324
2019-03-10T03:33:18.914Z,58.660889
2019-03-10T03:34:28.405Z,58.453369
2019-03-10T03:35:37.940Z,57.226562
2019-03-10T03:36:47.437Z,55.792236
2019-03-10T03:37:56.967Z,54.974365
2019-03-10T03:39:06.473Z,53.820801
2019-03-10T03:40:15.983Z,53.308105
2019-03-10T03:41:25.501Z,53.411865
2019-03-10T03:42:35.004Z,54.949951
2019-03-10T03:43:44.523Z,55.792236
2019-03-10T03:44:54.032Z,57.763672
2019-03-10T03:46:03.538Z,60.559082
2019-03-10T03:47:13.062Z,62.841797
2019-03-10T03:48:22.585Z,63.28125
2019-03-10T03:49:32.091Z,63.690186
2019-03-10T03:50:42.606Z,63.824463
2019-03-10T03:51:52.142Z,64.849854
2019-03-10T03:53:01.626Z,66.186523
2019-03-10T03:54:11.182Z,66.931152
2019-03-10T03:55:20.684Z,69.53125
2019-03-10T03:56:30.203Z,72.338867
2019-03-10T03:57:39.728Z,73.400879
2019-03-10T03:58:49.273Z,73.504639
2019-03-10T03:59:58.892Z,74.462891
2019-03-10T04:01:08.391Z,75.079346
2019-03-10T04:02:17.901Z,75.592041
2019-03-10T04:03:27.438Z,77.069092
2019-03-10T04:04:36.941Z,75.421143
2019-03-10T04:05:46.445Z,75.939941
2019-03-10T04:06:55.961Z,78.302002
2019-03-10T04:08:05.472Z,77.484131
2019-03-10T04:09:14.988Z,77.685547
2019-03-10T04:10:24.582Z,76.556396
2019-03-10T04:11:34.124Z,78.240967
2019-03-10T04:12:43.621Z,78.033447
2019-03-10T04:13:53.146Z,78.033447
2019-03-10T04:15:02.666Z,78.649902
2019-03-10T04:16:12.176Z,78.338623
2019-03-10T04:17:21.693Z,78.546143
2019-03-10T04:18:31.181Z,77.825928
2019-03-10T04:19:40.739Z,77.618408
2019-03-10T04:20:50.270Z,78.649902
2019-03-10T04:21:59.781Z,79.370117
2019-03-10T04:23:09.323Z,78.753662
2019-03-10T04:24:18.855Z,79.162598
2019-03-10T04:25:28.362Z,79.785156
2019-03-10T04:26:37.865Z,79.785156
2019-03-10T04:27:47.385Z,79.302979
2019-03-10T04:28:56.962Z,79.681396
2019-03-10T04:30:06.477Z,79.882812
2019-03-10T04:31:15.996Z,79.577637
2019-03-10T04:32:25.494Z,79.882812
2019-03-10T04:33:35.009Z,80.749512
2019-03-10T04:34:44.550Z,82.086182
2019-03-10T04:35:54.057Z,80.749512
2019-03-10T04:37:04.563Z,81.982422
2019-03-10T04:38:14.083Z,81.982422
2019-03-10T04:39:23.615Z,82.598877
2019-03-10T04:40:33.118Z,82.598877
2019-03-10T04:41:42.626Z,82.537842
2019-03-10T04:42:52.125Z,83.258057
2019-03-10T04:44:01.672Z,83.563232
2019-03-10T04:45:11.213Z,83.770752
2019-03-10T04:46:20.727Z,84.289551
2019-03-10T04:47:30.231Z,85.009766
2019-03-10T04:48:39.750Z,86.14502
2019-03-10T04:49:49.289Z,87.896729
2019-03-10T04:50:58.808Z,87.93335
2019-03-10T04:52:08.325Z,87.72583
2019-03-10T04:53:17.839Z,88.555908
2019-03-10T04:54:27.356Z,88.452148
2019-03-10T04:55:36.865Z,88.653564
2019-03-10T04:56:46.366Z,89.520264
2019-03-10T04:57:55.968Z,90.655518
2019-03-10T04:59:05.492Z,90.447998
2019-03-10T05:00:14.999Z,90.863037
2019-03-10T05:01:24.506Z,91.070557
2019-03-10T05:02:34.016Z,91.583252
2019-03-10T05:03:43.520Z,92.102051
2019-03-10T05:04:53.050Z,92.041016
2019-03-10T05:06:02.561Z,92.553711
2019-03-10T05:07:12.085Z,93.07251
2019-03-10T05:08:21.593Z,93.487549
2019-03-10T05:09:31.120Z,93.383789
2019-03-10T05:10:40.645Z,93.487549
2019-03-10T05:11:50.162Z,93.896484
2019-03-10T05:12:59.672Z,93.896484
2019-03-10T05:14:09.201Z,93.585205
2019-03-10T05:15:18.786Z,93.585205
2019-03-10T05:16:28.292Z,93.688965
2019-03-10T05:17:37.796Z,93.487549
2019-03-10T05:18:47.349Z,93.383789
2019-03-10T05:19:56.872Z,93.792725
2019-03-10T05:21:06.381Z,93.896484
2019-03-10T05:22:15.888Z,93.896484
2019-03-10T05:23:25.387Z,94.104004
2019-03-10T05:24:34.956Z,94.311523
2019-03-10T05:25:44.458Z,91.625977
2019-03-10T05:26:53.960Z,90.966797
2019-03-10T05:28:03.473Z,89.416504
2019-03-10T05:29:12.987Z,90.655518
2019-03-10T05:30:22.553Z,90.246582
2019-03-10T05:31:32.063Z,90.246582
2019-03-10T05:32:41.568Z,90.655518
2019-03-10T05:33:51.079Z,91.217041
2019-03-10T05:35:00.603Z,92.456055
2019-03-10T05:36:10.133Z,92.96875
2019-03-10T05:37:19.643Z,93.487549
2019-03-10T05:38:29.158Z,93.585205
2019-03-10T05:39:38.702Z,93.487549
2019-03-10T05:40:48.249Z,93.487549
2019-03-10T05:41:57.853Z,93.792725
2019-03-10T05:43:07.297Z,94.104004
2019-03-10T05:44:16.869Z,94.622803
2019-03-10T05:45:26.384Z,94.927979
2019-03-10T05:46:35.892Z,95.031738
2019-03-10T05:47:45.420Z,94.927979
2019-03-10T05:48:54.933Z,94.824219
2019-03-10T05:50:04.466Z,94.824219
2019-03-10T05:51:13.996Z,94.824219
2019-03-10T05:52:23.501Z,95.031738
2019-03-10T05:53:33.023Z,95.031738
2019-03-10T05:54:42.569Z,95.343018
2019-03-10T05:55:52.103Z,95.135498
2019-03-10T05:57:01.609Z,94.927979
2019-03-10T05:58:11.120Z,94.927979
2019-03-10T05:59:20.662Z,95.343018
2019-03-10T06:00:30.187Z,95.654297
2019-03-10T06:01:40.672Z,95.855713
2019-03-10T06:02:50.185Z,96.063232
2019-03-10T06:03:59.698Z,96.270752
2019-03-10T06:05:09.248Z,96.270752
2019-03-10T06:06:18.759Z,96.478271
2019-03-10T06:07:28.277Z,96.478271
2019-03-10T06:08:37.783Z,96.582031
2019-03-10T06:09:47.310Z,96.685791
2019-03-10T06:10:56.890Z,96.789551
2019-03-10T06:12:06.401Z,96.789551
2019-03-10T06:13:15.912Z,96.789551
2019-03-10T06:14:25.408Z,96.789551
2019-03-10T06:15:34.996Z,96.887207
2019-03-10T06:16:44.508Z,96.887207
2019-03-10T06:17:54.015Z,96.887207
2019-03-10T06:19:03.544Z,96.990967
2019-03-10T06:20:14.070Z,96.990967
2019-03-10T06:21:23.581Z,97.094727
2019-03-10T06:22:33.099Z,97.094727
2019-03-10T06:23:42.605Z,97.198486
2019-03-10T06:24:52.149Z,97.198486
2019-03-10T06:26:01.663Z,97.198486
2019-03-10T06:27:11.173Z,97.302246
2019-03-10T06:28:20.684Z,97.302246
2019-03-10T06:29:30.195Z,97.406006
2019-03-10T06:30:39.760Z,97.406006
2019-03-10T06:31:50.264Z,97.406006
2019-03-10T06:32:59.773Z,97.406006
2019-03-10T06:34:09.280Z,97.509766
2019-03-10T06:35:18.801Z,97.509766
2019-03-10T06:36:28.304Z,97.509766
2019-03-10T06:37:37.828Z,97.509766
2019-03-10T06:38:47.337Z,97.467041
2019-03-10T06:39:56.833Z,97.467041
2019-03-10T06:41:06.405Z,97.467041
2019-03-10T06:42:15.935Z,97.467041
2019-03-10T06:43:25.463Z,97.564697
2019-03-10T06:44:34.958Z,97.467041
2019-03-10T06:45:44.475Z,97.467041
2019-03-10T06:46:54.096Z,97.363281
2019-03-10T06:48:03.611Z,97.363281
2019-03-10T06:49:13.130Z,97.363281
2019-03-10T06:50:22.680Z,97.259521
2019-03-10T06:51:32.186Z,97.155762
2019-03-10T06:52:41.696Z,97.052002
2019-03-10T06:53:51.199Z,96.844482
2019-03-10T06:55:00.706Z,96.948242
2019-03-10T06:56:10.227Z,96.740723
2019-03-10T06:57:19.744Z,96.533203
2019-03-10T06:58:29.257Z,96.533203
2019-03-10T06:59:38.766Z,96.490479
2019-03-10T07:00:48.288Z,96.386719
2019-03-10T07:01:57.795Z,96.081543
2019-03-10T07:03:08.298Z,95.874023
2019-03-10T07:04:17.799Z,95.562744
2019-03-10T07:05:27.328Z,95.355225
2019-03-10T07:06:36.838Z,95.153809
2019-03-10T07:07:46.349Z,95.050049
2019-03-10T07:08:55.860Z,95.050049
2019-03-10T07:10:05.362Z,94.946289
2019-03-10T07:11:14.882Z,94.946289
2019-03-10T07:12:24.400Z,94.946289
2019-03-10T07:13:33.912Z,94.73877
2019-03-10T07:14:44.412Z,94.592285
2019-03-10T07:15:53.947Z,94.592285
2019-03-10T07:17:03.451Z,94.488525
2019-03-10T07:18:12.965Z,94.281006
2019-03-10T07:19:22.471Z,94.281006
2019-03-10T07:20:31.996Z,94.177246
2019-03-10T07:21:41.515Z,94.177246
2019-03-10T07:22:51.024Z,93.664551
2019-03-10T07:24:00.539Z,93.664551
2019-03-10T07:25:10.051Z,93.768311
2019-03-10T07:26:19.570Z,93.353271
2019-03-10T07:27:29.099Z,93.457031
2019-03-10T07:28:38.600Z,93.151855
2019-03-10T07:29:48.105Z,93.151855
2019-03-10T07:30:57.678Z,93.109131
2019-03-10T07:32:08.958Z,93.310547
2019-03-10T07:33:16.729Z,92.797852
2019-03-10T07:34:26.241Z,92.590332
2019-03-10T07:35:35.746Z,92.077637
2019-03-10T07:36:45.316Z,91.870117
2019-03-10T07:37:54.843Z,92.181396
2019-03-10T07:39:04.358Z,91.827393
2019-03-10T07:40:13.865Z,91.210938
2019-03-10T07:41:23.389Z,91.516113
2019-03-10T07:42:32.910Z,91.827393
2019-03-10T07:43:42.420Z,91.723633
2019-03-10T07:44:51.940Z,91.107178
2019-03-10T07:46:01.475Z,90.856934
2019-03-10T07:47:10.979Z,91.064453
2019-03-10T07:48:20.491Z,90.753174
2019-03-10T07:49:29.997Z,90.655518
2019-03-10T07:50:39.511Z,90.551758
2019-03-10T07:51:49.115Z,90.856934
2019-03-10T07:52:58.622Z,90.447998
2019-03-10T07:54:08.126Z,90.197754
2019-03-10T07:55:17.661Z,90.093994
2019-03-10T07:56:27.165Z,89.996338
2019-03-10T07:57:36.697Z,90.057373
2019-03-10T07:58:46.227Z,89.953613
2019-03-10T07:59:55.741Z,89.440918
2019-03-10T08:01:05.254Z,89.190674
2019-03-10T08:02:15.779Z,89.190674
2019-03-10T08:03:26.887Z,89.355469
2019-03-10T08:04:34.827Z,88.842773
2019-03-10T08:05:44.351Z,88.287354
2019-03-10T08:06:53.858Z,87.774658
2019-03-10T08:08:03.367Z,87.628174
2019-03-10T08:09:12.874Z,87.628174
2019-03-10T08:10:22.378Z,87.176514
2019-03-10T08:11:31.900Z,86.871338
2019-03-10T08:12:41.410Z,86.419678
2019-03-10T08:13:50.922Z,86.315918
2019-03-10T08:15:00.437Z,85.559082
2019-03-10T08:16:09.944Z,85.314941
2019-03-10T08:17:19.485Z,84.49707
2019-03-10T08:18:29.979Z,84.558105
2019-03-10T08:19:39.498Z,84.460449
2019-03-10T08:20:49.026Z,83.807373
2019-03-10T08:21:58.602Z,83.154297
2019-03-10T08:23:08.257Z,82.128906
2019-03-10T08:24:18.840Z,81.988525
2019-03-10T08:25:28.398Z,81.787109
2019-03-10T08:26:37.974Z,81.988525
2019-03-10T08:27:47.491Z,82.196045
2019-03-10T08:28:57.998Z,81.170654
2019-03-10T08:30:07.511Z,81.030273
2019-03-10T08:31:17.023Z,80.828857
2019-03-10T08:32:26.550Z,81.030273
2019-03-10T08:33:36.053Z,80.828857
2019-03-10T08:34:45.578Z,81.030273
2019-03-10T08:35:55.081Z,80.517578
2019-03-10T08:37:04.598Z,80.926514
2019-03-10T08:38:14.103Z,80.828857
2019-03-10T08:39:23.611Z,80.621338
2019-03-10T08:40:33.118Z,80.621338
2019-03-10T08:41:42.672Z,80.010986
2019-03-10T08:42:52.175Z,79.663086
2019-03-10T08:44:01.691Z,79.766846
2019-03-10T08:45:11.197Z,80.279541
2019-03-10T08:46:20.713Z,79.766846
2019-03-10T08:47:30.252Z,78.234863
2019-03-10T08:48:39.755Z,77.929688
2019-03-10T08:49:49.267Z,77.893066
2019-03-10T08:50:58.818Z,78.094482
2019-03-10T08:52:08.359Z,78.338623
2019-03-10T08:53:17.865Z,78.198242
2019-03-10T08:54:27.375Z,78.198242
2019-03-10T08:55:36.874Z,78.302002
2019-03-10T08:56:46.389Z,77.996826
2019-03-10T08:57:55.932Z,78.503418
2019-03-10T08:59:05.437Z,79.663086
2019-03-10T09:00:14.945Z,80.377197
2019-03-10T09:01:24.454Z,78.845215
2019-03-10T09:02:33.976Z,79.766846
2019-03-10T09:03:43.476Z,79.870605
2019-03-10T09:04:52.986Z,79.974365
2019-03-10T09:06:02.517Z,80.072021
2019-03-10T09:07:12.032Z,80.279541
2019-03-10T09:08:21.541Z,79.56543
2019-03-10T09:09:31.052Z,80.480957
2019-03-10T09:10:40.562Z,80.072021
2019-03-10T09:11:50.070Z,79.766846
2019-03-10T09:12:59.600Z,80.175781
2019-03-10T09:14:09.110Z,80.480957
2019-03-10T09:15:18.612Z,80.688477
2019-03-10T09:16:28.130Z,80.688477
2019-03-10T09:17:37.656Z,79.052734
2019-03-10T09:18:47.168Z,79.766846
2019-03-10T09:19:57.667Z,78.948975
2019-03-10T09:21:07.190Z,78.302002
2019-03-10T09:22:16.715Z,79.974365
2019-03-10T09:23:26.231Z,81.506348
2019-03-10T09:24:35.781Z,81.402588
2019-03-10T09:25:45.295Z,81.030273
2019-03-10T09:26:54.796Z,81.951904
2019-03-10T09:28:04.313Z,81.744385
2019-03-10T09:29:13.850Z,81.030273
2019-03-10T09:30:23.367Z,79.974365
2019-03-10T09:31:32.871Z,81.951904
2019-03-10T09:32:42.398Z,81.335449
2019-03-10T09:33:51.928Z,82.15332
2019-03-10T09:35:01.480Z,82.666016
2019-03-10T09:36:11.019Z,82.458496
2019-03-10T09:37:20.534Z,81.744385
2019-03-10T09:38:30.076Z,82.15332
2019-03-10T09:39:39.594Z,83.587646
2019-03-10T09:40:49.115Z,83.929443
2019-03-10T09:41:58.636Z,82.702637
2019-03-10T09:43:08.159Z,82.769775
2019-03-10T09:44:17.680Z,84.033203
2019-03-10T09:45:27.208Z,82.910156
2019-03-10T09:46:36.721Z,82.702637
2019-03-10T09:47:46.264Z,83.624268
2019-03-10T09:48:55.781Z,84.240723
2019-03-10T09:50:05.293Z,85.50415
2019-03-10T09:51:14.839Z,84.790039
2019-03-10T09:52:24.342Z,84.069824
2019-03-10T09:53:33.870Z,81.787109
2019-03-10T09:54:43.388Z,80.926514
2019-03-10T09:55:52.906Z,82.458496
2019-03-10T09:57:02.417Z,82.397461
2019-03-10T09:58:11.955Z,82.806396
2019-03-10T09:59:21.464Z,81.884766
2019-03-10T10:00:31.065Z,83.013916
2019-03-10T10:01:40.577Z,83.215332
2019-03-10T10:02:50.096Z,83.013916
2019-03-10T10:03:59.616Z,83.624268
2019-03-10T10:05:09.137Z,85.095215
2019-03-10T10:06:18.673Z,85.400391
2019-03-10T10:07:28.180Z,86.566162
2019-03-10T10:08:37.706Z,85.748291
2019-03-10T10:09:47.217Z,87.487793
2019-03-10T10:10:56.736Z,88.757324
2019-03-10T10:12:13.190Z,88.757324
2019-03-10T10:13:16.751Z,88.964844
2019-03-10T10:14:26.277Z,89.373779
2019-03-10T10:15:35.790Z,89.678955
2019-03-10T10:16:45.311Z,89.678955
2019-03-10T10:17:54.827Z,89.27002
2019-03-10T10:19:04.379Z,89.886475
2019-03-10T10:20:13.890Z,89.373779
2019-03-10T10:21:23.400Z,89.825439
2019-03-10T10:22:32.911Z,90.026855
2019-03-10T10:23:42.452Z,90.539551
2019-03-10T10:24:51.966Z,89.72168
2019-03-10T10:26:01.480Z,89.51416
2019-03-10T10:27:10.996Z,89.416504
2019-03-10T10:28:20.528Z,89.825439
2019-03-10T10:29:30.142Z,90.026855
2019-03-10T10:30:39.578Z,90.026855
2019-03-10T10:31:49.089Z,90.130615
2019-03-10T10:32:58.606Z,90.435791
2019-03-10T10:34:08.147Z,90.539551
2019-03-10T10:35:17.650Z,89.923096
2019-03-10T10:36:27.160Z,90.539551
2019-03-10T10:37:36.704Z,89.825439
2019-03-10T10:38:46.238Z,90.74707
2019-03-10T10:39:55.753Z,91.503906
2019-03-10T10:41:05.275Z,91.912842
2019-03-10T10:42:14.806Z,91.19873
2019-03-10T10:43:24.360Z,90.991211
2019-03-10T10:44:33.875Z,90.844727
2019-03-10T10:45:43.386Z,90.789795
2019-03-10T10:46:52.899Z,90.582275
2019-03-10T10:48:02.454Z,90.887451
2019-03-10T10:49:11.977Z,91.503906
2019-03-10T10:50:21.499Z,91.815186
2019-03-10T10:51:30.044Z,91.711426
2019-03-10T10:52:39.523Z,91.503906
2019-03-10T10:53:49.038Z,91.711426
2019-03-10T10:54:58.538Z,91.607666
2019-03-10T10:56:08.045Z,91.094971
2019-03-10T10:57:17.554Z,91.503906
2019-03-10T10:58:27.069Z,91.711426
2019-03-10T10:59:36.595Z,90.582275
2019-03-10T11:00:46.104Z,90.887451
2019-03-10T11:01:55.617Z,91.30249
2019-03-10T11:03:05.126Z,91.094971
2019-03-10T11:04:14.662Z,90.582275
2019-03-10T11:05:24.179Z,90.844727
2019-03-10T11:06:33.689Z,90.539551
2019-03-10T11:07:43.199Z,90.435791
2019-03-10T11:08:52.738Z,90.643311
2019-03-10T11:10:02.250Z,90.338135
2019-03-10T11:11:11.770Z,90.130615
2019-03-10T11:12:21.282Z,89.825439
2019-03-10T11:13:30.791Z,90.435791
2019-03-10T11:14:40.320Z,90.130615
2019-03-10T11:15:49.839Z,89.51416
2019-03-10T11:16:59.341Z,89.678955
2019-03-10T11:18:09.905Z,90.393066
2019-03-10T11:19:18.367Z,89.471436
2019-03-10T11:20:27.882Z,89.471436
2019-03-10T11:21:37.410Z,88.452148
2019-03-10T11:22:46.929Z,89.471436
2019-03-10T11:23:56.454Z,89.886475
2019-03-10T11:25:05.966Z,89.0625
2019-03-10T11:26:15.492Z,89.923096
2019-03-10T11:27:25.019Z,90.026855
2019-03-10T11:28:34.524Z,90.539551
2019-03-10T11:29:44.046Z,89.208984
2019-03-10T11:30:53.598Z,88.964844
2019-03-10T11:32:03.114Z,88.861084
2019-03-10T11:33:12.624Z,88.140869
2019-03-10T11:34:22.161Z,87.792969
2019-03-10T11:35:31.672Z,88.616943
2019-03-10T11:36:41.181Z,88.513184
2019-03-10T11:37:50.695Z,87.384033
2019-03-10T11:39:00.215Z,87.243652
2019-03-10T11:40:09.734Z,87.036133
2019-03-10T11:41:19.236Z,86.730957
2019-03-10T11:42:29.762Z,86.730957
2019-03-10T11:43:39.814Z,86.529541
2019-03-10T11:44:49.336Z,85.60791
2019-03-10T11:45:58.841Z,84.686279
2019-03-10T11:47:08.349Z,85.198975
2019-03-10T11:48:17.870Z,86.077881
2019-03-10T11:49:27.405Z,85.36377
2019-03-10T11:50:36.929Z,85.467529
2019-03-10T11:51:46.446Z,85.467529
2019-03-10T11:52:55.960Z,83.587646
2019-03-10T11:54:05.503Z,82.25708
2019-03-10T11:55:15.126Z,82.525635
2019-03-10T11:56:24.571Z,82.116699
2019-03-10T11:57:34.081Z,83.343506
2019-03-10T11:58:43.598Z,83.544922
2019-03-10T11:59:53.123Z,83.789062
2019-03-10T12:01:02.616Z,82.971191
2019-03-10T12:02:16.231Z,83.135986
2019-03-10T12:03:21.631Z,83.03833
2019-03-10T12:04:31.157Z,81.402588
2019-03-10T12:05:40.671Z,81.768799
2019-03-10T12:06:50.185Z,80.645752
2019-03-10T12:07:59.699Z,80.645752
2019-03-10T12:09:09.209Z,81.872559
2019-03-10T12:10:18.750Z,80.993652
2019-03-10T12:11:28.261Z,81.298828
2019-03-10T12:12:37.767Z,80.175781
2019-03-10T12:13:47.282Z,80.688477
2019-03-10T12:14:56.819Z,82.318115
2019-03-10T12:16:06.361Z,82.525635
2019-03-10T12:17:15.885Z,81.90918
2019-03-10T12:18:25.405Z,82.830811
2019-03-10T12:19:34.939Z,82.727051
2019-03-10T12:20:44.454Z,82.629395
2019-03-10T12:21:55.725Z,81.604004
2019-03-10T12:23:03.477Z,80.993652
2019-03-10T12:24:12.985Z,80.645752
2019-03-10T12:25:22.512Z,79.730225
2019-03-10T12:26:32.040Z,80.102539
2019-03-10T12:27:41.555Z,79.89502
2019-03-10T12:28:51.083Z,80.511475
2019-03-10T12:30:00.613Z,78.735352
2019-03-10T12:31:10.140Z,76.153564
2019-03-10T12:32:19.652Z,75.097656
2019-03-10T12:33:29.166Z,74.926758
2019-03-10T12:34:38.707Z,73.0896
2019-03-10T12:35:48.236Z,68.859863
2019-03-10T12:36:57.768Z,70.178223
2019-03-10T12:38:07.312Z,71.905518
2019-03-10T12:39:17.238Z,69.470215
2019-03-10T12:40:26.319Z,67.63916
2019-03-10T12:41:35.839Z,69.775391
2019-03-10T12:42:45.357Z,69.671631
2019-03-10T12:43:54.886Z,66.601562
2019-03-10T12:45:04.419Z,66.796875
2019-03-10T12:46:13.930Z,68.383789
2019-03-10T12:47:23.440Z,68.487549
2019-03-10T12:48:32.965Z,69.024658
2019-03-10T12:49:42.495Z,69.769287
2019-03-10T12:50:52.004Z,70.88623
2019-03-10T12:52:01.534Z,70.3125
2019-03-10T12:53:11.049Z,70.922852
2019-03-10T12:54:20.558Z,71.942139
2019-03-10T12:55:30.086Z,70.922852
2019-03-10T12:56:40.663Z,71.191406
2019-03-10T12:57:49.097Z,70.275879
2019-03-10T12:58:58.613Z,70.074463
2019-03-10T13:00:08.135Z,69.464111
2019-03-10T13:01:18.646Z,69.769287
2019-03-10T13:02:28.151Z,70.178223
2019-03-10T13:03:37.714Z,69.195557
2019-03-10T13:04:47.184Z,64.807129
2019-03-10T13:05:57.699Z,66.931152
2019-03-10T13:07:07.216Z,67.266846
2019-03-10T13:08:16.727Z,68.414307
2019-03-10T13:09:26.279Z,69.128418
2019-03-10T13:10:35.807Z,69.567871
2019-03-10T13:11:45.328Z,69.360352
2019-03-10T13:12:54.839Z,70.007324
2019-03-10T13:14:04.357Z,70.410156